Time;durP1;ratioP1;P1;durP2;ratioP2;P2;SDS_P1;SDS_P2;PMS_P1;PMS_P2;Temp;Humidity;BMP_temperature;BMP_pressure;BME280_temperature;BME280_humidity;BME280_pressure;Samples;Min_cycle;Max_cycle;Signal;HPM_P1;HPM_P2
2022/03/06 00:01:15;;;;;;;139.15;44.50;;;;;;;;;;5014473;28;20038;-71
2022/03/06 00:03:42;;;;;;;141.13;44.58;;;;;;;;;;5014457;28;20030;-71
2022/03/06 00:06:07;;;;;;;131.63;43.15;;;;;;;;;;5013890;28;20049;-71
2022/03/06 00:08:32;;;;;;;149.30;45.88;;;;;;;;;;5013740;28;20575;-71
2022/03/06 00:10:58;;;;;;;140.00;43.80;;;;;;;;;;5015937;28;20191;-71
2022/03/06 00:13:23;;;;;;;140.27;43.03;;;;;;;;;;5037168;28;20037;-71
2022/03/06 00:15:49;;;;;;;136.10;44.22;;;;;;;;;;5024528;28;20282;-71
2022/03/06 00:18:14;;;;;;;136.50;44.63;;;;;;;;;;5032553;28;20039;-71
2022/03/06 00:20:42;;;;;;;132.98;41.15;;;;;;;;;;5032738;28;20021;-71
2022/03/06 00:23:07;;;;;;;137.73;42.97;;;;;;;;;;5024002;28;20064;-71
2022/03/06 00:25:32;;;;;;;132.27;43.30;;;;;;;;;;5027024;28;20029;-71
2022/03/06 00:27:58;;;;;;;134.65;42.17;;;;;;;;;;5026122;28;20345;-70
2022/03/06 00:30:24;;;;;;;124.28;41.25;;;;;;;;;;5019335;28;20037;-71
2022/03/06 00:32:49;;;;;;;132.82;42.50;;;;;;;;;;5025841;28;20059;-71
2022/03/06 00:35:15;;;;;;;130.02;42.80;;;;;;;;;;5022256;28;20036;-72
2022/03/06 00:37:40;;;;;;;134.55;42.88;;;;;;;;;;5021606;28;20022;-71
2022/03/06 00:40:06;;;;;;;131.52;42.28;;;;;;;;;;5022166;28;20022;-71
2022/03/06 00:42:32;;;;;;;133.45;42.88;;;;;;;;;;5020227;28;20056;-71
2022/03/06 00:44:57;;;;;;;133.88;42.95;;;;;;;;;;5022105;28;20330;-71
2022/03/06 00:47:23;;;;;;;134.35;41.92;;;;;;;;;;5030685;28;20041;-71
2022/03/06 00:49:48;;;;;;;129.88;41.47;;;;;;;;;;5024215;28;20060;-71
2022/03/06 00:52:14;;;;;;;122.20;40.53;;;;;;;;;;5023499;28;20270;-71
2022/03/06 00:54:39;;;;;;;134.63;41.55;;;;;;;;;;5023698;28;20093;-71
2022/03/06 00:57:04;;;;;;;121.72;40.30;;;;;;;;;;5025651;28;20022;-71
2022/03/06 00:59:34;;;;;;;127.95;40.22;;;;;;;;;;5024287;28;20026;-71
2022/03/06 01:02:04;;;;;;;129.60;42.03;;;;;;;;;;5030134;28;20033;-71
2022/03/06 01:04:30;;;;;;;128.38;40.63;;;;;;;;;;5030643;28;20059;-70
2022/03/06 01:06:56;;;;;;;119.35;40.55;;;;;;;;;;5032248;28;20042;-71
2022/03/06 01:09:21;;;;;;;115.88;40.20;;;;;;;;;;5023573;28;20050;-71
2022/03/06 01:11:47;;;;;;;109.00;38.90;;;;;;;;;;5024874;28;20108;-70
2022/03/06 01:14:12;;;;;;;121.28;38.70;;;;;;;;;;5023169;28;20026;-71
2022/03/06 01:16:37;;;;;;;119.47;38.85;;;;;;;;;;5023530;28;20018;-71
2022/03/06 01:19:03;;;;;;;115.70;39.83;;;;;;;;;;5023655;28;20085;-70
2022/03/06 01:21:28;;;;;;;108.60;37.75;;;;;;;;;;5023226;28;20018;-71
2022/03/06 01:23:54;;;;;;;106.68;38.35;;;;;;;;;;5026225;28;20030;-71
2022/03/06 01:26:19;;;;;;;108.25;36.42;;;;;;;;;;5023670;28;20022;-71
2022/03/06 01:28:45;;;;;;;111.55;36.58;;;;;;;;;;5022961;28;20026;-71
2022/03/06 01:31:10;;;;;;;107.35;36.13;;;;;;;;;;5029329;28;20333;-70
2022/03/06 01:33:36;;;;;;;105.25;37.58;;;;;;;;;;5024123;28;20064;-70
2022/03/06 01:36:01;;;;;;;108.05;37.08;;;;;;;;;;5023037;28;20052;-70
2022/03/06 01:38:27;;;;;;;101.53;34.83;;;;;;;;;;5022922;28;20458;-71
2022/03/06 01:40:52;;;;;;;102.05;36.53;;;;;;;;;;5023135;28;20102;-71
2022/03/06 01:43:18;;;;;;;98.53;35.60;;;;;;;;;;5022882;28;20017;-70
2022/03/06 01:45:43;;;;;;;101.30;34.67;;;;;;;;;;5022986;28;20029;-71
2022/03/06 01:48:09;;;;;;;99.05;35.55;;;;;;;;;;5022935;28;20053;-71
2022/03/06 01:50:35;;;;;;;103.75;35.55;;;;;;;;;;5023124;28;20040;-70
2022/03/06 01:53:06;;;;;;;89.80;32.35;;;;;;;;;;5023215;28;20088;-70
2022/03/06 01:55:32;;;;;;;95.18;35.30;;;;;;;;;;5020783;28;20030;-71
2022/03/06 01:58:01;;;;;;;91.63;34.15;;;;;;;;;;5022564;28;20037;-71
2022/03/06 02:00:30;;;;;;;93.68;33.00;;;;;;;;;;5023232;28;20097;-71
2022/03/06 02:02:56;;;;;;;89.68;32.95;;;;;;;;;;5023425;28;20034;-71
2022/03/06 02:05:24;;;;;;;88.78;32.30;;;;;;;;;;5024022;28;20029;-70
2022/03/06 02:07:50;;;;;;;89.93;32.17;;;;;;;;;;5027346;28;20045;-70
2022/03/06 02:10:15;;;;;;;92.95;33.63;;;;;;;;;;5041486;28;20067;-70
2022/03/06 02:12:42;;;;;;;85.22;31.92;;;;;;;;;;5022449;28;20033;-70
2022/03/06 02:15:10;;;;;;;89.53;32.42;;;;;;;;;;5023469;28;20036;-70
2022/03/06 02:17:37;;;;;;;84.30;31.55;;;;;;;;;;5022564;28;20029;-71
2022/03/06 02:20:06;;;;;;;80.72;30.60;;;;;;;;;;5022644;28;20026;-70
2022/03/06 02:22:34;;;;;;;79.18;30.60;;;;;;;;;;5022545;28;20022;-70
2022/03/06 02:25:03;;;;;;;84.93;31.33;;;;;;;;;;5024480;28;20021;-70
2022/03/06 02:27:28;;;;;;;77.10;31.58;;;;;;;;;;5024366;28;20014;-70
2022/03/06 02:29:54;;;;;;;84.13;31.40;;;;;;;;;;5022856;28;20052;-71
2022/03/06 02:32:21;;;;;;;81.28;29.35;;;;;;;;;;5022000;28;20040;-70
2022/03/06 02:34:48;;;;;;;85.35;30.08;;;;;;;;;;5022368;28;20367;-70
2022/03/06 02:37:15;;;;;;;79.25;31.02;;;;;;;;;;5025727;28;20076;-70
2022/03/06 02:39:43;;;;;;;77.30;31.05;;;;;;;;;;5021820;28;20026;-70
2022/03/06 02:42:09;;;;;;;78.53;30.02;;;;;;;;;;5021996;28;20108;-70
2022/03/06 02:44:35;;;;;;;79.00;29.33;;;;;;;;;;5021743;28;20123;-70
2022/03/06 02:47:00;;;;;;;87.28;31.70;;;;;;;;;;5021997;28;20030;-70
2022/03/06 02:49:25;;;;;;;80.05;30.30;;;;;;;;;;5021769;28;20022;-71
2022/03/06 02:51:51;;;;;;;81.85;31.70;;;;;;;;;;5021927;28;20028;-71
2022/03/06 02:54:23;;;;;;;69.55;28.42;;;;;;;;;;5021698;28;20325;-71
2022/03/06 02:56:49;;;;;;;79.13;29.58;;;;;;;;;;5021588;28;20029;-70
2022/03/06 02:59:15;;;;;;;71.45;29.77;;;;;;;;;;5023075;28;20096;-71
2022/03/06 03:01:43;;;;;;;74.95;27.98;;;;;;;;;;5021841;28;20072;-70
2022/03/06 03:04:09;;;;;;;82.50;30.83;;;;;;;;;;5021784;28;21129;-70
2022/03/06 03:06:35;;;;;;;69.68;27.17;;;;;;;;;;5024791;28;20053;-72
2022/03/06 03:09:02;;;;;;;72.95;29.98;;;;;;;;;;5022183;28;20037;-72
2022/03/06 03:11:29;;;;;;;65.60;28.75;;;;;;;;;;5022872;28;20214;-70
2022/03/06 03:13:54;;;;;;;72.55;29.17;;;;;;;;;;5022342;28;20030;-71
2022/03/06 03:16:19;;;;;;;71.43;29.08;;;;;;;;;;5022633;28;20314;-71
2022/03/06 03:18:45;;;;;;;66.55;26.98;;;;;;;;;;5024926;28;20063;-72
2022/03/06 03:21:10;;;;;;;71.72;28.02;;;;;;;;;;5022252;28;20026;-72
2022/03/06 03:23:35;;;;;;;67.60;27.27;;;;;;;;;;5022506;28;20017;-71
2022/03/06 03:26:01;;;;;;;64.07;26.60;;;;;;;;;;5022424;28;20041;-71
2022/03/06 03:28:26;;;;;;;70.35;28.70;;;;;;;;;;5022352;28;20029;-70
2022/03/06 03:30:51;;;;;;;69.07;28.23;;;;;;;;;;5024420;28;20314;-70
2022/03/06 03:33:17;;;;;;;68.30;28.42;;;;;;;;;;5031276;28;20061;-69
2022/03/06 03:35:42;;;;;;;71.85;28.40;;;;;;;;;;5021292;28;20025;-70
2022/03/06 03:38:07;;;;;;;64.22;28.13;;;;;;;;;;5020534;28;20033;-70
2022/03/06 03:40:33;;;;;;;68.35;27.90;;;;;;;;;;5020894;28;20029;-69
2022/03/06 03:42:59;;;;;;;62.75;28.13;;;;;;;;;;5019415;28;20025;-70
2022/03/06 03:45:24;;;;;;;68.40;27.60;;;;;;;;;;5020948;28;20030;-71
2022/03/06 03:47:50;;;;;;;72.90;27.80;;;;;;;;;;5020851;28;20089;-69
2022/03/06 03:50:15;;;;;;;65.97;27.75;;;;;;;;;;5020649;28;20258;-72
2022/03/06 03:52:40;;;;;;;62.38;27.63;;;;;;;;;;5020837;28;20109;-71
2022/03/06 03:55:06;;;;;;;65.50;26.70;;;;;;;;;;5027734;28;20042;-71
2022/03/06 03:57:32;;;;;;;59.10;27.05;;;;;;;;;;5024248;28;20030;-69
2022/03/06 03:59:57;;;;;;;63.05;27.50;;;;;;;;;;5020916;28;20093;-70
2022/03/06 04:02:23;;;;;;;60.15;26.70;;;;;;;;;;5020745;28;20092;-72
2022/03/06 04:04:49;;;;;;;65.03;25.88;;;;;;;;;;5020870;28;20343;-69
2022/03/06 04:07:15;;;;;;;52.97;25.20;;;;;;;;;;5022903;28;20045;-70
2022/03/06 04:09:40;;;;;;;63.72;27.13;;;;;;;;;;5031059;28;20040;-71
2022/03/06 04:12:06;;;;;;;61.20;26.20;;;;;;;;;;5061140;28;20013;-71
2022/03/06 04:14:31;;;;;;;64.65;27.13;;;;;;;;;;5052095;28;20045;-71
2022/03/06 04:16:56;;;;;;;63.75;26.10;;;;;;;;;;5041261;28;20017;-71
2022/03/06 04:19:22;;;;;;;65.63;26.80;;;;;;;;;;5036395;28;20140;-71
2022/03/06 04:21:47;;;;;;;61.85;26.50;;;;;;;;;;5041210;28;20025;-71
2022/03/06 04:24:12;;;;;;;62.10;25.33;;;;;;;;;;5041220;28;20139;-71
2022/03/06 04:26:38;;;;;;;63.78;26.60;;;;;;;;;;5050372;28;20032;-71
2022/03/06 04:29:04;;;;;;;71.53;26.48;;;;;;;;;;5060912;28;20328;-70
2022/03/06 04:31:30;;;;;;;67.63;27.23;;;;;;;;;;5061295;28;20036;-71
2022/03/06 04:33:55;;;;;;;68.78;27.10;;;;;;;;;;5061375;28;20039;-71
2022/03/06 04:36:20;;;;;;;70.40;28.08;;;;;;;;;;5058438;28;20016;-71
2022/03/06 04:38:46;;;;;;;64.57;27.42;;;;;;;;;;5039887;28;20025;-70
2022/03/06 04:41:11;;;;;;;59.78;24.92;;;;;;;;;;5041402;28;20028;-71
2022/03/06 04:43:37;;;;;;;67.65;26.48;;;;;;;;;;5040724;28;20248;-71
2022/03/06 04:46:03;;;;;;;63.22;25.58;;;;;;;;;;5041279;28;20029;-70
2022/03/06 04:48:28;;;;;;;70.13;26.20;;;;;;;;;;5041163;28;20205;-71
2022/03/06 04:50:54;;;;;;;64.63;25.75;;;;;;;;;;5040980;28;20026;-71
2022/03/06 04:53:19;;;;;;;63.72;26.60;;;;;;;;;;5040851;28;20033;-71
2022/03/06 04:55:45;;;;;;;68.57;27.48;;;;;;;;;;5040970;28;20025;-70
2022/03/06 04:58:10;;;;;;;63.95;26.35;;;;;;;;;;5040535;28;20438;-71
2022/03/06 05:00:35;;;;;;;66.28;25.48;;;;;;;;;;5041215;28;20056;-70
2022/03/06 05:03:01;;;;;;;72.75;28.25;;;;;;;;;;5048806;28;20017;-71
2022/03/06 05:05:26;;;;;;;62.88;25.50;;;;;;;;;;5061021;28;20056;-71
2022/03/06 05:07:52;;;;;;;69.80;26.77;;;;;;;;;;5044606;28;20061;-71
2022/03/06 05:10:17;;;;;;;71.60;27.35;;;;;;;;;;5040896;28;20030;-71
2022/03/06 05:12:43;;;;;;;69.20;28.35;;;;;;;;;;5040450;28;20048;-71
2022/03/06 05:15:11;;;;;;;68.50;26.98;;;;;;;;;;5041086;28;20029;-70
2022/03/06 05:17:39;;;;;;;68.47;26.70;;;;;;;;;;5041160;28;20053;-71
2022/03/06 05:20:06;;;;;;;71.47;27.35;;;;;;;;;;5040832;28;20053;-71
2022/03/06 05:22:31;;;;;;;76.25;28.67;;;;;;;;;;5040938;28;20025;-71
2022/03/06 05:24:58;;;;;;;69.95;27.40;;;;;;;;;;5040219;28;20030;-70
2022/03/06 05:27:24;;;;;;;75.18;27.33;;;;;;;;;;5040206;28;20088;-71
2022/03/06 05:29:50;;;;;;;67.88;26.83;;;;;;;;;;5041711;28;20033;-71
2022/03/06 05:32:15;;;;;;;73.22;28.40;;;;;;;;;;5044178;28;20325;-71
2022/03/06 05:34:41;;;;;;;79.00;27.27;;;;;;;;;;5044345;28;20089;-71
2022/03/06 05:37:06;;;;;;;88.63;29.42;;;;;;;;;;5043375;28;20021;-71
2022/03/06 05:39:31;;;;;;;74.18;27.75;;;;;;;;;;5043985;28;20022;-71
2022/03/06 05:41:57;;;;;;;72.65;27.60;;;;;;;;;;5043904;28;20345;-71
2022/03/06 05:44:24;;;;;;;75.10;26.98;;;;;;;;;;5044417;28;20025;-71
2022/03/06 05:46:49;;;;;;;77.57;28.63;;;;;;;;;;5044240;28;20029;-71
2022/03/06 05:49:15;;;;;;;72.85;29.00;;;;;;;;;;5044192;28;20044;-71
2022/03/06 05:51:41;;;;;;;68.70;26.63;;;;;;;;;;5043644;28;20114;-71
2022/03/06 05:54:07;;;;;;;69.97;26.70;;;;;;;;;;5044063;28;20048;-70
2022/03/06 05:56:33;;;;;;;72.22;27.20;;;;;;;;;;5043543;28;20049;-71
2022/03/06 05:58:58;;;;;;;73.88;27.63;;;;;;;;;;5036004;28;20025;-71
2022/03/06 06:01:24;;;;;;;78.53;28.13;;;;;;;;;;5022723;28;20018;-71
2022/03/06 06:03:49;;;;;;;79.90;28.67;;;;;;;;;;5024977;28;20072;-70
2022/03/06 06:06:15;;;;;;;72.45;27.48;;;;;;;;;;5022824;28;20083;-71
2022/03/06 06:08:40;;;;;;;82.90;28.85;;;;;;;;;;5022875;28;20334;-70
2022/03/06 06:11:06;;;;;;;69.25;27.35;;;;;;;;;;5022804;28;20378;-70
2022/03/06 06:13:33;;;;;;;78.85;27.35;;;;;;;;;;5023637;28;20026;-71
2022/03/06 06:15:58;;;;;;;77.47;28.85;;;;;;;;;;5023952;28;20029;-71
2022/03/06 06:18:26;;;;;;;83.47;30.10;;;;;;;;;;5023852;28;20096;-70
2022/03/06 06:20:52;;;;;;;79.10;27.55;;;;;;;;;;5023412;28;20021;-71
2022/03/06 06:23:18;;;;;;;79.13;28.92;;;;;;;;;;5023712;28;20199;-71
2022/03/06 06:25:43;;;;;;;84.20;30.10;;;;;;;;;;5031270;28;20274;-71
2022/03/06 06:28:08;;;;;;;78.10;28.05;;;;;;;;;;5042948;28;20029;-71
2022/03/06 06:30:34;;;;;;;83.85;30.15;;;;;;;;;;5042355;28;20032;-71
2022/03/06 06:32:59;;;;;;;84.20;29.13;;;;;;;;;;5043451;28;20041;-71
2022/03/06 06:35:24;;;;;;;82.20;30.98;;;;;;;;;;5043264;28;20021;-71
2022/03/06 06:37:50;;;;;;;71.53;27.73;;;;;;;;;;5043076;28;20022;-71
2022/03/06 06:40:15;;;;;;;80.10;28.45;;;;;;;;;;5043203;28;20021;-70
2022/03/06 06:42:40;;;;;;;85.32;27.48;;;;;;;;;;5042598;28;20321;-71
2022/03/06 06:45:06;;;;;;;82.43;30.58;;;;;;;;;;5043384;28;20273;-71
2022/03/06 06:47:31;;;;;;;92.15;31.17;;;;;;;;;;5042998;28;20104;-71
2022/03/06 06:49:57;;;;;;;88.47;30.52;;;;;;;;;;5042118;28;20092;-71
2022/03/06 06:52:22;;;;;;;87.40;31.55;;;;;;;;;;5043044;28;20021;-71
2022/03/06 06:54:48;;;;;;;84.88;29.52;;;;;;;;;;5042840;28;20072;-71
2022/03/06 06:57:13;;;;;;;88.28;28.75;;;;;;;;;;5042892;28;20017;-71
2022/03/06 06:59:38;;;;;;;87.30;31.13;;;;;;;;;;5043104;28;20087;-71
2022/03/06 07:02:04;;;;;;;86.35;29.67;;;;;;;;;;5042351;28;20029;-71
2022/03/06 07:04:32;;;;;;;75.45;28.67;;;;;;;;;;5062887;28;20270;-71
2022/03/06 07:06:57;;;;;;;95.25;32.53;;;;;;;;;;5060198;28;20041;-71
2022/03/06 07:09:22;;;;;;;83.38;27.30;;;;;;;;;;5042694;28;20025;-71
2022/03/06 07:11:48;;;;;;;81.05;28.10;;;;;;;;;;5042691;28;20044;-71
2022/03/06 07:14:13;;;;;;;80.95;30.67;;;;;;;;;;5042619;28;20029;-70
2022/03/06 07:16:38;;;;;;;88.05;30.80;;;;;;;;;;5042574;28;20210;-70
2022/03/06 07:19:04;;;;;;;79.05;29.08;;;;;;;;;;5042716;28;20092;-70
2022/03/06 07:21:29;;;;;;;87.55;29.80;;;;;;;;;;5042764;28;20308;-70
2022/03/06 07:23:55;;;;;;;74.82;26.35;;;;;;;;;;5042452;28;20068;-70
2022/03/06 07:26:20;;;;;;;86.53;30.08;;;;;;;;;;5042440;28;20091;-70
2022/03/06 07:28:45;;;;;;;70.80;27.27;;;;;;;;;;5041492;28;20018;-71
2022/03/06 07:31:11;;;;;;;80.70;28.40;;;;;;;;;;5042196;28;20021;-71
2022/03/06 07:33:36;;;;;;;77.07;27.20;;;;;;;;;;5042403;28;20021;-71
2022/03/06 07:36:01;;;;;;;84.93;28.73;;;;;;;;;;5042188;28;20017;-70
2022/03/06 07:38:27;;;;;;;92.40;31.67;;;;;;;;;;5041938;28;20032;-71
2022/03/06 07:40:52;;;;;;;76.45;28.13;;;;;;;;;;5041587;28;20045;-71
2022/03/06 07:43:17;;;;;;;75.40;27.95;;;;;;;;;;5040285;28;20021;-70
2022/03/06 07:45:43;;;;;;;87.43;29.92;;;;;;;;;;5041426;28;20104;-71
2022/03/06 07:48:08;;;;;;;81.60;30.02;;;;;;;;;;5041933;28;20056;-71
2022/03/06 07:50:33;;;;;;;78.00;27.88;;;;;;;;;;5042003;28;20217;-71
2022/03/06 07:52:59;;;;;;;73.18;28.27;;;;;;;;;;5041868;28;20029;-71
2022/03/06 07:55:24;;;;;;;82.72;29.45;;;;;;;;;;5041864;28;20101;-70
2022/03/06 07:57:50;;;;;;;76.38;29.25;;;;;;;;;;5041813;28;20071;-70
2022/03/06 08:00:15;;;;;;;77.95;29.02;;;;;;;;;;5041751;28;20317;-72
2022/03/06 08:02:41;;;;;;;74.25;26.80;;;;;;;;;;5045582;28;20020;-71
2022/03/06 08:05:07;;;;;;;78.78;28.33;;;;;;;;;;5061543;28;20044;-71
2022/03/06 08:07:33;;;;;;;71.38;28.65;;;;;;;;;;5061275;28;20060;-71
2022/03/06 08:09:59;;;;;;;73.97;26.73;;;;;;;;;;5061526;28;20209;-71
2022/03/06 08:12:26;;;;;;;61.60;23.67;;;;;;;;;;5061627;28;20032;-70
2022/03/06 08:14:53;;;;;;;70.55;25.17;;;;;;;;;;5061528;28;20024;-70
2022/03/06 08:17:18;;;;;;;68.03;27.05;;;;;;;;;;5061448;28;20079;-72
2022/03/06 08:19:45;;;;;;;75.15;26.35;;;;;;;;;;5061496;28;20321;-71
2022/03/06 08:22:12;;;;;;;71.47;26.40;;;;;;;;;;5061480;28;20347;-70
2022/03/06 08:24:37;;;;;;;63.75;26.10;;;;;;;;;;5061259;28;20017;-70
2022/03/06 08:27:03;;;;;;;61.63;25.52;;;;;;;;;;5061210;28;20051;-71
2022/03/06 08:29:28;;;;;;;55.58;21.33;;;;;;;;;;5061145;28;20045;-71
2022/03/06 08:31:54;;;;;;;58.67;23.70;;;;;;;;;;5061468;28;20028;-69
2022/03/06 08:34:19;;;;;;;64.15;25.92;;;;;;;;;;5054658;28;20096;-71
2022/03/06 08:36:45;;;;;;;51.80;21.08;;;;;;;;;;5041188;28;20038;-72
2022/03/06 08:39:10;;;;;;;59.95;24.08;;;;;;;;;;5040782;28;20040;-71
2022/03/06 08:41:36;;;;;;;64.97;24.35;;;;;;;;;;5041264;28;20064;-70
2022/03/06 08:44:01;;;;;;;64.38;23.45;;;;;;;;;;5041255;28;20028;-71
2022/03/06 08:46:27;;;;;;;59.42;23.35;;;;;;;;;;5041315;28;20084;-72
2022/03/06 08:48:52;;;;;;;58.75;23.25;;;;;;;;;;5041202;28;20037;-71
2022/03/06 08:51:17;;;;;;;53.80;22.85;;;;;;;;;;5031882;28;20322;-71
2022/03/06 08:53:43;;;;;;;65.10;24.30;;;;;;;;;;5019877;28;20036;-71
2022/03/06 08:56:08;;;;;;;59.10;25.55;;;;;;;;;;5021381;28;20097;-71
2022/03/06 08:58:35;;;;;;;61.05;22.63;;;;;;;;;;5021062;28;20105;-69
2022/03/06 09:01:00;;;;;;;55.33;22.40;;;;;;;;;;5021324;28;20029;-71
2022/03/06 09:03:26;;;;;;;62.05;24.58;;;;;;;;;;5040546;28;20033;-71
2022/03/06 09:05:51;;;;;;;47.42;21.15;;;;;;;;;;5037292;28;20287;-72
2022/03/06 09:08:16;;;;;;;51.42;21.50;;;;;;;;;;5043857;28;20070;-73
2022/03/06 09:10:42;;;;;;;52.38;21.13;;;;;;;;;;5039574;28;20057;-71
2022/03/06 09:13:08;;;;;;;51.03;20.85;;;;;;;;;;5043292;28;20033;-71
2022/03/06 09:15:35;;;;;;;54.28;21.85;;;;;;;;;;5044880;28;20032;-73
2022/03/06 09:18:00;;;;;;;56.22;23.23;;;;;;;;;;5044758;28;20033;-76
2022/03/06 09:20:26;;;;;;;51.72;21.58;;;;;;;;;;5043945;28;20024;-75
2022/03/06 09:22:52;;;;;;;53.13;21.33;;;;;;;;;;5044360;28;20028;-75
2022/03/06 09:25:18;;;;;;;54.17;23.73;;;;;;;;;;5044409;28;20017;-75
2022/03/06 09:27:43;;;;;;;48.83;21.27;;;;;;;;;;5044204;28;20032;-74
2022/03/06 09:30:09;;;;;;;47.33;20.98;;;;;;;;;;5044228;28;20021;-75
2022/03/06 09:32:36;;;;;;;40.35;17.33;;;;;;;;;;5044531;28;20332;-73
2022/03/06 09:35:01;;;;;;;50.05;20.67;;;;;;;;;;5044266;28;20025;-74
2022/03/06 09:37:27;;;;;;;46.50;19.27;;;;;;;;;;5044146;28;20039;-73
2022/03/06 09:39:52;;;;;;;50.80;20.00;;;;;;;;;;5044113;28;20179;-73
2022/03/06 09:42:19;;;;;;;43.30;18.85;;;;;;;;;;5042882;28;20029;-73
2022/03/06 09:44:46;;;;;;;44.55;19.30;;;;;;;;;;5044067;28;20022;-73
2022/03/06 09:47:12;;;;;;;48.67;20.85;;;;;;;;;;5043905;28;20233;-73
2022/03/06 09:49:38;;;;;;;45.55;20.25;;;;;;;;;;5044022;28;20077;-74
2022/03/06 09:52:03;;;;;;;45.30;19.55;;;;;;;;;;5043612;28;20225;-74
2022/03/06 09:54:29;;;;;;;43.72;20.98;;;;;;;;;;5043821;28;20044;-73
2022/03/06 09:56:55;;;;;;;39.70;17.85;;;;;;;;;;5043830;28;20027;-74
2022/03/06 09:59:20;;;;;;;47.88;19.67;;;;;;;;;;5043800;28;20044;-73
2022/03/06 10:01:45;;;;;;;44.42;19.98;;;;;;;;;;5043817;28;20029;-73
2022/03/06 10:04:34;;;;;;;41.88;18.48;;;;;;;;;;5043638;28;20028;-74
2022/03/06 10:07:07;;;;;;;44.92;18.58;;;;;;;;;;5043317;28;20267;-73
2022/03/06 10:09:45;;;;;;;40.25;18.58;;;;;;;;;;5043517;28;20056;-73
2022/03/06 10:12:30;;;;;;;41.38;18.05;;;;;;;;;;5043210;28;20037;-73
2022/03/06 10:15:04;;;;;;;38.13;19.43;;;;;;;;;;5043532;28;20048;-74
2022/03/06 10:17:31;;;;;;;35.90;16.98;;;;;;;;;;5042087;28;20029;-74
2022/03/06 10:20:02;;;;;;;37.25;17.20;;;;;;;;;;5043527;28;20097;-73
2022/03/06 10:22:30;;;;;;;35.42;16.58;;;;;;;;;;5043373;28;20080;-74
2022/03/06 10:24:57;;;;;;;38.35;17.40;;;;;;;;;;5043438;28;20072;-74
2022/03/06 10:27:44;;;;;;;37.20;17.17;;;;;;;;;;5043848;28;20041;-74
2022/03/06 10:30:37;;;;;;;26.75;12.75;;;;;;;;;;5043011;28;20274;-74
2022/03/06 10:33:07;;;;;;;30.63;13.93;;;;;;;;;;5043534;28;20428;-73
2022/03/06 10:35:42;;;;;;;30.15;14.00;;;;;;;;;;5042908;28;20378;-73
2022/03/06 10:38:29;;;;;;;27.85;13.38;;;;;;;;;;5042771;28;20056;-74
2022/03/06 10:41:09;;;;;;;28.85;13.27;;;;;;;;;;5041821;28;20021;-74
2022/03/06 10:43:35;;;;;;;24.95;12.10;;;;;;;;;;5043258;28;20040;-74
2022/03/06 10:46:18;;;;;;;22.73;10.98;;;;;;;;;;5043332;28;20327;-73
2022/03/06 10:48:56;;;;;;;31.02;12.07;;;;;;;;;;5042698;28;20063;-74
2022/03/06 10:51:22;;;;;;;23.90;11.57;;;;;;;;;;5041662;28;20214;-73
2022/03/06 10:53:55;;;;;;;19.85;9.98;;;;;;;;;;5042571;28;20021;-73
2022/03/06 10:56:21;;;;;;;20.13;10.43;;;;;;;;;;5042804;28;20025;-74
2022/03/06 10:58:48;;;;;;;17.58;9.70;;;;;;;;;;5041153;28;20029;-74
2022/03/06 11:01:14;;;;;;;17.13;7.50;;;;;;;;;;5042563;28;20090;-74
2022/03/06 11:03:40;;;;;;;27.75;9.23;;;;;;;;;;5042741;28;20044;-74
2022/03/06 11:06:09;;;;;;;20.77;9.60;;;;;;;;;;5042199;28;20126;-74
2022/03/06 11:08:36;;;;;;;25.85;9.13;;;;;;;;;;5042472;28;20033;-74
2022/03/06 11:11:05;;;;;;;20.50;8.48;;;;;;;;;;5042358;28;20032;-74
2022/03/06 11:13:31;;;;;;;17.83;9.15;;;;;;;;;;5042394;28;20029;-74
2022/03/06 11:15:59;;;;;;;18.58;10.10;;;;;;;;;;5042289;28;20095;-76
2022/03/06 11:18:26;;;;;;;18.92;8.38;;;;;;;;;;5042150;28;20029;-77
2022/03/06 11:20:52;;;;;;;24.15;10.85;;;;;;;;;;5041934;28;20032;-76
2022/03/06 11:23:25;;;;;;;16.42;8.73;;;;;;;;;;5042011;28;20029;-76
2022/03/06 11:26:12;;;;;;;20.27;10.27;;;;;;;;;;5041937;28;20438;-75
2022/03/06 11:29:15;;;;;;;20.10;10.65;;;;;;;;;;5041322;28;20214;-75
2022/03/06 11:31:51;;;;;;;18.48;9.10;;;;;;;;;;5022061;28;20033;-75
2022/03/06 11:34:29;;;;;;;18.05;9.27;;;;;;;;;;5026945;28;20060;-74
2022/03/06 11:36:56;;;;;;;16.92;8.93;;;;;;;;;;5042259;28;20068;-76
2022/03/06 11:39:30;;;;;;;16.60;8.32;;;;;;;;;;5043208;28;20032;-75
2022/03/06 11:42:00;;;;;;;21.20;10.57;;;;;;;;;;5041809;28;20025;-74
2022/03/06 11:44:35;;;;;;;22.20;10.77;;;;;;;;;;5041639;28;20026;-74
2022/03/06 11:47:13;;;;;;;20.48;9.57;;;;;;;;;;5037750;28;20032;-76
2022/03/06 11:49:38;;;;;;;21.55;9.75;;;;;;;;;;5038570;28;20375;-75
2022/03/06 11:52:27;;;;;;;17.05;8.40;;;;;;;;;;5040900;28;20029;-75
2022/03/06 11:54:53;;;;;;;19.83;9.95;;;;;;;;;;5041050;28;20053;-75
2022/03/06 11:57:35;;;;;;;17.20;8.05;;;;;;;;;;5041069;28;20033;-73
2022/03/06 12:00:20;;;;;;;21.65;9.85;;;;;;;;;;5041491;28;20036;-73
2022/03/06 12:02:47;;;;;;;;;;;;;;;;;;5042071;28;20052;-73
2022/03/06 12:05:14;;;;;;;19.92;8.60;;;;;;;;;;5041135;28;19909;-73
2022/03/06 12:07:40;;;;;;;20.73;8.05;;;;;;;;;;5041257;28;20041;-72
2022/03/06 12:10:10;;;;;;;19.30;9.20;;;;;;;;;;5041390;28;20113;-70
2022/03/06 12:12:37;;;;;;;16.40;7.60;;;;;;;;;;5041366;28;20313;-72
2022/03/06 12:15:25;;;;;;;18.60;8.52;;;;;;;;;;5040709;28;20030;-75
2022/03/06 12:17:51;;;;;;;17.60;9.07;;;;;;;;;;5041286;28;20214;-74
2022/03/06 12:20:23;;;;;;;19.35;9.07;;;;;;;;;;5041005;28;20025;-75
2022/03/06 12:22:51;;;;;;;18.75;8.90;;;;;;;;;;5040715;28;20055;-74
2022/03/06 12:25:19;;;;;;;16.75;8.45;;;;;;;;;;5041028;28;20186;-74
2022/03/06 12:28:03;;;;;;;16.67;8.25;;;;;;;;;;5040988;28;20021;-74
2022/03/06 12:30:30;;;;;;;17.73;7.95;;;;;;;;;;5021271;28;20254;-72
2022/03/06 12:32:56;;;;;;;16.42;8.82;;;;;;;;;;5021166;28;20030;-72
2022/03/06 12:35:22;;;;;;;33.97;7.68;;;;;;;;;;5021027;28;20025;-72
2022/03/06 12:38:00;;;;;;;18.77;8.13;;;;;;;;;;5020968;28;20075;-72
2022/03/06 12:40:28;;;;;;;16.63;8.52;;;;;;;;;;5020227;28;20040;-71
2022/03/06 12:43:03;;;;;;;14.82;8.32;;;;;;;;;;5021016;28;20041;-72
2022/03/06 12:45:29;;;;;;;14.15;7.95;;;;;;;;;;5021088;28;20030;-72
2022/03/06 12:47:55;;;;;;;14.85;8.13;;;;;;;;;;5021065;28;20031;-71
2022/03/06 12:50:22;;;;;;;15.80;8.30;;;;;;;;;;5021071;28;20026;-72
2022/03/06 12:52:53;;;;;;;18.65;7.75;;;;;;;;;;5020822;28;20026;-72
2022/03/06 12:55:20;;;;;;;15.85;7.35;;;;;;;;;;5020971;28;20306;-72
2022/03/06 12:57:57;;;;;;;16.52;8.35;;;;;;;;;;5020984;28;20076;-72
2022/03/06 13:00:27;;;;;;;17.88;8.00;;;;;;;;;;5020929;28;20076;-72
2022/03/06 13:02:57;;;;;;;15.32;8.15;;;;;;;;;;5020896;28;20093;-72
2022/03/06 13:05:23;;;;;;;13.80;6.90;;;;;;;;;;5021002;28;20097;-72
2022/03/06 13:07:50;;;;;;;16.92;7.20;;;;;;;;;;5020797;28;20494;-73
2022/03/06 13:10:18;;;;;;;15.10;7.50;;;;;;;;;;5020923;28;20029;-73
2022/03/06 13:12:45;;;;;;;18.85;7.88;;;;;;;;;;5025136;28;20049;-72
2022/03/06 13:15:13;;;;;;;16.20;8.35;;;;;;;;;;5025778;28;20326;-72
2022/03/06 13:17:39;;;;;;;15.43;7.93;;;;;;;;;;5019450;28;20060;-72
2022/03/06 13:20:05;;;;;;;14.07;7.53;;;;;;;;;;5019746;28;20025;-73
2022/03/06 13:22:31;;;;;;;14.15;7.65;;;;;;;;;;5019822;28;20063;-72
2022/03/06 13:24:58;;;;;;;13.95;7.07;;;;;;;;;;5024012;28;20104;-71
2022/03/06 13:27:26;;;;;;;11.77;6.35;;;;;;;;;;5025675;28;20021;-72
2022/03/06 13:30:11;;;;;;;14.32;6.35;;;;;;;;;;5022669;28;20029;-72
2022/03/06 13:32:44;;;;;;;15.23;7.90;;;;;;;;;;5026640;28;20022;-74
2022/03/06 13:35:35;;;;;;;15.88;7.40;;;;;;;;;;5035365;28;20028;-72
2022/03/06 13:38:04;;;;;;;13.93;6.90;;;;;;;;;;5039167;28;20049;-72
2022/03/06 13:40:33;;;;;;;13.45;7.32;;;;;;;;;;5040449;28;20025;-72
2022/03/06 13:42:58;;;;;;;16.48;7.03;;;;;;;;;;5040565;28;20075;-73
2022/03/06 13:45:24;;;;;;;13.38;7.68;;;;;;;;;;5040178;28;20021;-73
2022/03/06 13:47:52;;;;;;;14.15;6.95;;;;;;;;;;5040396;28;20029;-72
2022/03/06 13:50:31;;;;;;;11.95;6.88;;;;;;;;;;5040378;28;20025;-73
2022/03/06 13:52:57;;;;;;;35.15;6.72;;;;;;;;;;5042718;28;20083;-72
2022/03/06 13:55:24;;;;;;;12.20;6.72;;;;;;;;;;5043794;28;20033;-71
2022/03/06 13:58:02;;;;;;;14.07;6.93;;;;;;;;;;5043751;28;20029;-72
2022/03/06 14:00:33;;;;;;;12.88;6.60;;;;;;;;;;5043713;28;20033;-71
2022/03/06 14:03:01;;;;;;;9.82;5.00;;;;;;;;;;5043832;28;20025;-72
2022/03/06 14:05:51;;;;;;;12.52;6.45;;;;;;;;;;5043556;28;20032;-72
2022/03/06 14:08:20;;;;;;;12.80;5.43;;;;;;;;;;5042860;28;20100;-72
2022/03/06 14:10:51;;;;;;;11.52;6.13;;;;;;;;;;5043498;28;20049;-71
2022/03/06 14:13:38;;;;;;;14.20;5.80;;;;;;;;;;5043622;28;20340;-71
2022/03/06 14:16:08;;;;;;;13.70;6.82;;;;;;;;;;5043505;28;20222;-72
2022/03/06 14:18:45;;;;;;;12.77;6.45;;;;;;;;;;5043338;28;20021;-71
2022/03/06 14:21:25;;;;;;;11.55;6.22;;;;;;;;;;5043375;28;20233;-72